Time;durP1;ratioP1;P1;durP2;ratioP2;P2;SDS_P1;SDS_P2;PMS_P1;PMS_P2;Temp;Humidity;BMP_temperature;BMP_pressure;BME280_temperature;BME280_humidity;BME280_pressure;Samples;Min_cycle;Max_cycle;Signal;HPM_P1;HPM_P2
2021/04/06 00:02:08;;;;;;;9.82;2.95;;;0.60;80.30;;;;;;5002757;28;20034;-59
2021/04/06 00:04:40;;;;;;;5.50;2.22;;;0.60;80.20;;;;;;4994203;28;20019;-59
2021/04/06 00:07:08;;;;;;;5.32;2.67;;;0.70;80.30;;;;;;4998962;28;20402;-58
2021/04/06 00:09:36;;;;;;;8.20;3.42;;;0.70;80.00;;;;;;4995619;28;20042;-58
2021/04/06 00:12:05;;;;;;;7.00;2.10;;;0.70;79.90;;;;;;4998983;28;20055;-58
2021/04/06 00:14:32;;;;;;;5.22;2.50;;;0.70;80.00;;;;;;4993486;28;20034;-58
2021/04/06 00:17:00;;;;;;;4.65;2.42;;;0.60;79.80;;;;;;5000792;28;20062;-59
2021/04/06 00:19:30;;;;;;;5.40;2.35;;;0.60;80.10;;;;;;4992959;28;20027;-62
2021/04/06 00:21:59;;;;;;;10.25;2.70;;;0.60;80.50;;;;;;5006635;28;20141;-59
2021/04/06 00:24:28;;;;;;;5.00;2.50;;;0.70;80.10;;;;;;5000082;28;20068;-60
2021/04/06 00:27:17;;;;;;;4.50;2.40;;;0.70;79.90;;;;;;5001456;28;21816;-60
2021/04/06 00:29:46;;;;;;;5.38;2.50;;;0.50;80.40;;;;;;4994479;28;20026;-58
2021/04/06 00:32:13;;;;;;;5.25;2.78;;;0.60;80.70;;;;;;4996173;28;20026;-59
2021/04/06 00:34:40;;;;;;;8.02;2.78;;;0.40;81.40;;;;;;4993348;28;20035;-59
2021/04/06 00:37:11;;;;;;;6.15;2.63;;;0.40;81.10;;;;;;5002521;28;20127;-59
2021/04/06 00:39:38;;;;;;;4.28;2.47;;;0.40;80.90;;;;;;5000290;28;20030;-56
2021/04/06 00:42:17;;;;;;;7.72;2.50;;;0.50;80.50;;;;;;4997360;28;20144;-61
2021/04/06 00:44:54;;;;;;;12.30;3.13;;;0.40;80.60;;;;;;4996868;28;20042;-58
2021/04/06 00:47:28;;;;;;;7.38;2.70;;;0.50;80.90;;;;;;5001977;28;20549;-59
2021/04/06 00:49:57;;;;;;;6.95;2.50;;;0.60;81.00;;;;;;5002983;28;20124;-59
2021/04/06 00:52:25;;;;;;;11.23;2.90;;;0.60;80.90;;;;;;5003957;28;20125;-58
2021/04/06 00:54:53;;;;;;;7.18;2.60;;;0.50;81.80;;;;;;4997921;28;20069;-60
2021/04/06 00:57:22;;;;;;;6.35;2.63;;;0.40;82.30;;;;;;5016582;28;20022;-59
2021/04/06 01:00:15;;;;;;;8.30;2.58;;;0.40;82.10;;;;;;5020566;28;20037;-60
2021/04/06 01:03:01;;;;;;;9.70;3.90;;;0.40;82.90;;;;;;5034853;28;20607;-59
2021/04/06 01:05:29;;;;;;;6.60;2.40;;;0.40;82.60;;;;;;5017207;28;20370;-56
2021/04/06 01:07:56;;;;;;;4.43;2.30;;;0.40;82.70;;;;;;5015386;28;20040;-59
2021/04/06 01:10:24;;;;;;;5.50;2.53;;;0.50;82.50;;;;;;5015300;28;20092;-60
2021/04/06 01:12:51;;;;;;;6.60;2.60;;;0.50;82.30;;;;;;5015450;28;20449;-59
2021/04/06 01:15:18;;;;;;;5.80;2.55;;;0.50;82.40;;;;;;5016657;28;20033;-60
2021/04/06 01:17:45;;;;;;;6.53;2.45;;;0.50;82.50;;;;;;5015970;28;20096;-59
2021/04/06 01:20:14;;;;;;;7.10;2.63;;;0.40;82.60;;;;;;5013322;28;20038;-59
2021/04/06 01:22:41;;;;;;;4.80;2.42;;;0.30;82.80;;;;;;5018002;28;20564;-58
2021/04/06 01:25:16;;;;;;;4.93;2.50;;;0.40;83.10;;;;;;5013474;28;20041;-59
2021/04/06 01:27:42;;;;;;;;;;;0.40;83.20;;;;;;5011768;28;20030;-60
2021/04/06 01:30:09;;;;;;;6.32;2.60;;;0.40;83.30;;;;;;5016124;28;19922;-60
2021/04/06 01:32:35;;;;;;;6.60;3.15;;;0.50;83.30;;;;;;5015526;28;20030;-59
2021/04/06 01:35:05;;;;;;;6.03;2.33;;;0.50;82.90;;;;;;5011963;28;20026;-58
2021/04/06 01:37:30;;;;;;;6.50;2.63;;;0.50;83.10;;;;;;5029748;28;20497;-59
2021/04/06 01:39:57;;;;;;;4.55;3.55;;;0.50;83.00;;;;;;5014272;28;20042;-60
2021/04/06 01:42:26;;;;;;;5.57;3.03;;;0.50;83.60;;;;;;5018262;28;20037;-60
2021/04/06 01:44:54;;;;;;;7.18;2.58;;;0.40;83.70;;;;;;5019827;28;20069;-58
2021/04/06 01:47:22;;;;;;;8.65;2.90;;;0.40;84.30;;;;;;5018096;28;20033;-58
2021/04/06 01:49:48;;;;;;;4.50;2.45;;;0.40;84.60;;;;;;5020184;28;20080;-60
2021/04/06 01:52:14;;;;;;;6.63;2.80;;;0.40;85.30;;;;;;5025059;28;20053;-59
2021/04/06 01:54:41;;;;;;;5.53;3.22;;;0.50;85.60;;;;;;5020556;28;20138;-59
2021/04/06 01:57:12;;;;;;;6.82;3.00;;;0.40;85.90;;;;;;5021377;28;20519;-58
2021/04/06 01:59:43;;;;;;;4.38;3.05;;;0.50;85.90;;;;;;5020047;28;20034;-60
2021/04/06 02:02:10;;;;;;;8.20;3.53;;;0.50;86.50;;;;;;5029874;28;20119;-57
2021/04/06 02:04:40;;;;;;;5.97;3.70;;;0.50;86.70;;;;;;5022896;28;20062;-60
2021/04/06 02:07:08;;;;;;;7.35;3.53;;;0.40;87.00;;;;;;5020553;28;20137;-59
2021/04/06 02:09:34;;;;;;;9.02;4.18;;;0.40;87.50;;;;;;5016070;28;20105;-57
2021/04/06 02:12:00;;;;;;;8.95;4.72;;;0.40;88.30;;;;;;5021449;28;20108;-57
2021/04/06 02:14:25;;;;;;;6.78;3.67;;;0.40;88.70;;;;;;5027218;28;20029;-60
2021/04/06 02:16:52;;;;;;;7.95;4.10;;;0.40;88.60;;;;;;5021512;28;20033;-57
2021/04/06 02:19:22;;;;;;;6.93;4.78;;;0.50;88.60;;;;;;5025672;28;20034;-58
2021/04/06 02:21:55;;;;;;;8.90;4.38;;;0.50;88.80;;;;;;5020858;28;20037;-57
2021/04/06 02:24:30;;;;;;;9.43;4.93;;;0.40;89.80;;;;;;5016268;28;20033;-59
2021/04/06 02:27:07;;;;;;;7.40;4.05;;;0.30;89.80;;;;;;5027353;28;20033;-58
2021/04/06 02:30:08;;;;;;;8.50;5.20;;;0.30;90.00;;;;;;5009552;28;20124;-59
2021/04/06 02:32:35;;;;;;;9.27;4.57;;;0.30;90.10;;;;;;5016275;28;20041;-59
2021/04/06 02:35:05;;;;;;;8.48;4.95;;;0.20;90.30;;;;;;5021071;28;20029;-60
2021/04/06 02:37:33;;;;;;;15.77;5.50;;;0.30;90.30;;;;;;5004371;28;20076;-57
2021/04/06 02:40:02;;;;;;;8.23;4.78;;;0.20;90.30;;;;;;5029910;28;20033;-60
2021/04/06 02:42:30;;;;;;;9.45;5.00;;;0.20;90.50;;;;;;5023266;28;20160;-60
2021/04/06 02:45:07;;;;;;;12.02;5.20;;;0.20;90.80;;;;;;5021167;28;20034;-61
2021/04/06 02:47:43;;;;;;;11.65;6.03;;;0.10;90.60;;;;;;5014913;28;20030;-60
2021/04/06 02:50:24;;;;;;;8.57;5.63;;;0.20;90.50;;;;;;5030773;28;20079;-60
2021/04/06 02:53:08;;;;;;;8.95;4.93;;;0.20;90.50;;;;;;5020494;28;20030;-58
2021/04/06 02:55:47;;;;;;;9.80;5.70;;;0.20;90.50;;;;;;5017221;28;20030;-60
2021/04/06 02:58:45;;;;;;;11.70;5.85;;;0.20;90.50;;;;;;5016119;28;20057;-59
2021/04/06 03:01:23;;;;;;;9.43;5.20;;;0.20;90.40;;;;;;5015375;28;20099;-56
2021/04/06 03:04:07;;;;;;;9.23;5.60;;;0.20;90.40;;;;;;5029651;28;20044;-59
2021/04/06 03:06:51;;;;;;;8.93;5.57;;;0.30;90.30;;;;;;5012983;28;20140;-59
2021/04/06 03:09:34;;;;;;;12.18;5.97;;;0.20;90.40;;;;;;5022396;28;20664;-60
2021/04/06 03:12:32;;;;;;;12.15;5.43;;;0.30;90.40;;;;;;5019850;28;20057;-58
2021/04/06 03:15:04;;;;;;;12.75;6.20;;;0.30;90.20;;;;;;5024521;28;20507;-60
2021/04/06 03:17:45;;;;;;;9.18;5.63;;;0.20;90.30;;;;;;5023751;28;20036;-59
2021/04/06 03:20:12;;;;;;;9.90;6.00;;;0.30;90.00;;;;;;5019477;28;20036;-59
2021/04/06 03:22:38;;;;;;;13.05;6.30;;;0.40;90.10;;;;;;5015772;28;20437;-58
2021/04/06 03:25:05;;;;;;;10.13;5.78;;;0.40;89.40;;;;;;5014442;28;20044;-57
2021/04/06 03:27:33;;;;;;;11.50;6.05;;;0.30;89.80;;;;;;5030092;28;20048;-59
2021/04/06 03:29:59;;;;;;;9.52;5.60;;;0.50;89.50;;;;;;5024337;28;20034;-58
2021/04/06 03:32:25;;;;;;;11.93;5.75;;;0.60;89.50;;;;;;5018050;28;20030;-59
2021/04/06 03:34:52;;;;;;;12.40;6.07;;;0.70;89.20;;;;;;5015106;28;20112;-59
2021/04/06 03:37:20;;;;;;;10.13;6.40;;;0.60;88.80;;;;;;4996667;28;20097;-59
2021/04/06 03:39:47;;;;;;;11.63;6.10;;;0.60;88.70;;;;;;5020942;28;20033;-59
2021/04/06 03:42:25;;;;;;;13.75;5.80;;;0.70;88.50;;;;;;5022425;28;20073;-59
2021/04/06 03:44:51;;;;;;;10.40;6.03;;;0.60;88.60;;;;;;5014529;28;20061;-59
2021/04/06 03:47:17;;;;;;;7.82;5.43;;;0.60;88.90;;;;;;5015303;28;20029;-59
2021/04/06 03:49:48;;;;;;;10.68;6.03;;;0.60;89.30;;;;;;5023021;28;20100;-58
2021/04/06 03:52:14;;;;;;;11.15;6.13;;;0.70;89.00;;;;;;5024907;28;20511;-58
2021/04/06 03:54:49;;;;;;;7.93;6.07;;;0.70;89.20;;;;;;5018976;28;20034;-57
2021/04/06 03:59:58;;;;;;;10.88;6.28;;;0.70;89.10;;;;;;5011493;28;20489;-59
2021/04/06 04:02:24;;;;;;;9.75;6.18;;;0.80;88.70;;;;;;5023311;28;20091;-59
2021/04/06 04:04:53;;;;;;;12.07;6.10;;;0.80;89.00;;;;;;5012628;28;20458;-60
2021/04/06 04:07:19;;;;;;;11.25;6.05;;;0.80;88.90;;;;;;5008163;28;20033;-60
2021/04/06 04:09:46;;;;;;;13.18;6.35;;;0.90;88.70;;;;;;5015820;28;20030;-59
2021/04/06 04:12:12;;;;;;;8.48;5.72;;;0.90;88.50;;;;;;5022081;28;20076;-58
2021/04/06 04:14:38;;;;;;;11.32;6.38;;;1.00;88.10;;;;;;5025950;28;20037;-57
2021/04/06 04:17:04;;;;;;;10.27;6.30;;;1.00;88.20;;;;;;5025951;28;20034;-57
2021/04/06 04:19:30;;;;;;;10.10;6.38;;;0.90;89.30;;;;;;5030844;28;20036;-59
2021/04/06 04:21:55;;;;;;;12.85;7.13;;;1.00;89.00;;;;;;5022177;28;20038;-55
2021/04/06 04:24:21;;;;;;;10.35;6.30;;;1.00;89.20;;;;;;5021173;28;20121;-58
2021/04/06 04:26:47;;;;;;;7.82;5.90;;;0.90;89.10;;;;;;5029498;28;20133;-54
2021/04/06 04:29:12;;;;;;;8.90;6.72;;;1.00;89.00;;;;;;5031337;28;20473;-58
2021/04/06 04:31:38;;;;;;;8.15;6.47;;;1.10;88.50;;;;;;5028458;28;20477;-59
2021/04/06 04:34:05;;;;;;;12.30;6.57;;;1.10;88.70;;;;;;5021934;28;20030;-55
2021/04/06 04:36:30;;;;;;;11.43;6.15;;;1.10;88.70;;;;;;5017295;28;20485;-59
2021/04/06 04:38:56;;;;;;;12.35;6.88;;;1.00;89.10;;;;;;5016366;28;20037;-57
2021/04/06 04:41:21;;;;;;;12.77;6.80;;;1.00;89.40;;;;;;5029281;28;20477;-61
2021/04/06 04:43:47;;;;;;;10.20;7.03;;;1.10;89.30;;;;;;5025137;28;20457;-58
2021/04/06 04:46:13;;;;;;;9.32;6.55;;;1.10;89.30;;;;;;5026939;28;20030;-59
2021/04/06 04:48:38;;;;;;;10.32;6.60;;;1.00;90.10;;;;;;5016275;28;20044;-59
2021/04/06 04:51:04;;;;;;;13.27;7.43;;;1.10;89.50;;;;;;5018476;28;20120;-60
2021/04/06 04:53:29;;;;;;;10.00;7.10;;;1.00;89.80;;;;;;5029098;28;20083;-59
2021/04/06 04:55:55;;;;;;;13.38;7.00;;;0.90;89.80;;;;;;5026662;28;20037;-58
2021/04/06 04:58:21;;;;;;;10.65;6.50;;;0.90;90.20;;;;;;5016776;28;20064;-59
2021/04/06 05:00:47;;;;;;;11.95;6.82;;;0.90;90.20;;;;;;5027048;28;20037;-59
2021/04/06 05:03:12;;;;;;;10.82;6.72;;;0.80;90.70;;;;;;5029256;28;20106;-55
2021/04/06 05:05:38;;;;;;;15.20;7.55;;;0.70;90.90;;;;;;5032546;28;20108;-59
2021/04/06 05:08:04;;;;;;;11.85;7.15;;;0.60;91.30;;;;;;5017586;28;20050;-59
2021/04/06 05:10:29;;;;;;;13.35;7.20;;;0.70;91.10;;;;;;5014839;28;20482;-60
2021/04/06 05:12:55;;;;;;;9.90;6.82;;;0.90;90.80;;;;;;5018274;28;20042;-59
2021/04/06 05:15:21;;;;;;;11.88;7.13;;;0.70;91.00;;;;;;5029041;28;20025;-60
2021/04/06 05:17:46;;;;;;;14.10;7.40;;;0.90;90.80;;;;;;5027285;28;20036;-59
2021/04/06 05:20:12;;;;;;;11.25;7.18;;;0.90;90.60;;;;;;5026107;28;20060;-60
2021/04/06 05:22:38;;;;;;;12.35;8.40;;;0.90;90.60;;;;;;5018213;28;20405;-59
2021/04/06 05:25:05;;;;;;;12.07;7.70;;;0.90;90.70;;;;;;5021690;28;20125;-58
2021/04/06 05:27:32;;;;;;;14.43;7.88;;;1.00;90.40;;;;;;5030885;28;20112;-60
2021/04/06 05:29:58;;;;;;;14.23;7.50;;;1.10;90.30;;;;;;5028542;28;20448;-59
2021/04/06 05:32:23;;;;;;;13.00;7.15;;;1.00;90.40;;;;;;5015625;28;20053;-59
2021/04/06 05:34:49;;;;;;;13.68;8.32;;;0.90;90.50;;;;;;5021793;28;20060;-59
2021/04/06 05:37:15;;;;;;;12.70;7.75;;;1.00;90.70;;;;;;5015984;28;20030;-59
2021/04/06 05:39:40;;;;;;;12.85;8.07;;;1.00;90.60;;;;;;5029170;28;20099;-60
2021/04/06 05:42:07;;;;;;;12.02;7.40;;;1.00;90.90;;;;;;5026003;28;20091;-59
2021/04/06 05:44:34;;;;;;;10.05;7.45;;;0.90;91.00;;;;;;5021335;28;20042;-57
2021/04/06 05:47:02;;;;;;;12.55;7.75;;;1.00;90.90;;;;;;5014561;28;20037;-60
2021/04/06 05:49:31;;;;;;;12.95;7.93;;;1.00;90.80;;;;;;5026864;28;20032;-60
2021/04/06 05:51:57;;;;;;;12.15;7.32;;;1.10;90.80;;;;;;5029684;28;20036;-62
2021/04/06 05:54:24;;;;;;;12.05;8.55;;;1.20;90.50;;;;;;5024055;28;20022;-58
2021/04/06 05:56:50;;;;;;;11.90;7.18;;;1.00;90.70;;;;;;5018991;28;20191;-58
2021/04/06 05:59:16;;;;;;;11.18;7.88;;;1.30;90.40;;;;;;5023442;28;20061;-60
2021/04/06 06:01:44;;;;;;;13.77;7.60;;;1.30;90.20;;;;;;5019305;28;20033;-59
2021/04/06 06:04:11;;;;;;;13.07;8.50;;;1.40;90.20;;;;;;5028491;28;20515;-59
2021/04/06 06:06:37;;;;;;;12.75;8.18;;;1.30;90.20;;;;;;5020920;28;20034;-56
2021/04/06 06:09:04;;;;;;;13.23;8.55;;;1.30;90.20;;;;;;5028433;28;20039;-58
2021/04/06 06:11:31;;;;;;;13.77;7.93;;;1.30;90.00;;;;;;5006547;28;20060;-59
2021/04/06 06:13:57;;;;;;;16.38;7.82;;;1.10;90.20;;;;;;5018255;28;20068;-58
2021/04/06 06:16:27;;;;;;;13.50;8.32;;;1.30;90.40;;;;;;5014684;28;20029;-60
2021/04/06 06:19:04;;;;;;;14.07;8.82;;;1.50;89.80;;;;;;5024842;28;20041;-58
2021/04/06 06:22:11;;;;;;;13.10;8.20;;;1.30;90.00;;;;;;5025945;28;20025;-60
2021/04/06 06:24:39;;;;;;;11.15;7.50;;;1.40;89.60;;;;;;5013292;28;20042;-60
2021/04/06 06:27:38;;;;;;;13.52;8.07;;;1.30;89.70;;;;;;5028671;28;20033;-56
2021/04/06 06:30:31;;;;;;;11.52;7.57;;;1.50;89.50;;;;;;5026029;28;20124;-59
2021/04/06 06:33:25;;;;;;;11.00;7.88;;;1.50;89.70;;;;;;5019234;28;20037;-58
2021/04/06 06:35:52;;;;;;;11.85;7.75;;;1.40;89.80;;;;;;5002279;28;20479;-56
2021/04/06 06:38:32;;;;;;;9.05;6.80;;;1.50;89.70;;;;;;5013369;28;20049;-59
2021/04/06 06:41:18;;;;;;;10.55;6.78;;;1.50;90.10;;;;;;5021676;28;20037;-58
2021/04/06 06:43:50;;;;;;;8.48;6.30;;;1.70;88.50;;;;;;5022313;28;20041;-59
2021/04/06 06:46:21;;;;;;;15.20;6.72;;;1.80;87.40;;;;;;5016007;28;20092;-58
2021/04/06 06:48:53;;;;;;;8.95;6.03;;;1.90;87.30;;;;;;5014361;28;20116;-59
2021/04/06 06:51:20;;;;;;;9.68;6.22;;;1.60;87.50;;;;;;5015714;28;20124;-56
2021/04/06 06:53:46;;;;;;;8.88;5.78;;;1.60;88.00;;;;;;5025262;28;20050;-58
2021/04/06 06:56:12;;;;;;;10.77;6.20;;;1.70;87.60;;;;;;5009636;28;20022;-60
2021/04/06 06:58:41;;;;;;;8.43;5.07;;;1.90;86.80;;;;;;5014659;28;20067;-57
2021/04/06 07:01:08;;;;;;;7.85;5.20;;;1.90;85.50;;;;;;5016626;28;20033;-59
2021/04/06 07:03:33;;;;;;;7.65;5.38;;;1.80;85.60;;;;;;5017870;28;20036;-56
2021/04/06 07:06:22;;;;;;;12.75;5.88;;;1.90;86.00;;;;;;5020703;28;20041;-60
2021/04/06 07:08:48;;;;;;;10.40;5.00;;;1.90;85.30;;;;;;5018439;28;20041;-59
2021/04/06 07:11:15;;;;;;;8.80;5.25;;;1.90;85.50;;;;;;5017447;28;20152;-59
2021/04/06 07:13:44;;;;;;;8.35;4.88;;;2.10;84.40;;;;;;5023300;28;20033;-58
2021/04/06 07:16:13;;;;;;;7.28;4.55;;;2.10;84.30;;;;;;5013442;28;20517;-57
2021/04/06 07:18:42;;;;;;;9.40;4.72;;;2.20;84.50;;;;;;5024892;28;20112;-58
2021/04/06 07:21:10;;;;;;;7.15;4.40;;;2.30;83.10;;;;;;5024870;28;20103;-60
2021/04/06 07:23:58;;;;;;;5.70;4.10;;;2.10;83.30;;;;;;5023407;28;20026;-58
2021/04/06 07:26:25;;;;;;;6.07;3.60;;;2.20;81.70;;;;;;5011074;28;20045;-57
2021/04/06 07:28:51;;;;;;;8.30;4.35;;;2.30;81.50;;;;;;5011181;28;20113;-58
2021/04/06 07:31:17;;;;;;;8.50;4.30;;;2.40;81.10;;;;;;5028034;28;20408;-57
2021/04/06 07:33:45;;;;;;;9.80;4.18;;;2.40;79.70;;;;;;5025300;28;20029;-58
2021/04/06 07:36:14;;;;;;;9.40;3.95;;;2.40;80.10;;;;;;5016497;28;20041;-57
2021/04/06 07:38:46;;;;;;;8.40;4.50;;;2.50;78.50;;;;;;5012373;28;20045;-57
2021/04/06 07:41:14;;;;;;;9.50;3.90;;;2.70;78.40;;;;;;5027448;28;20049;-60
2021/04/06 07:43:41;;;;;;;6.13;3.60;;;2.60;78.80;;;;;;5026760;28;20034;-59
2021/04/06 07:46:07;;;;;;;12.55;3.90;;;2.80;77.30;;;;;;5018050;28;20038;-59
2021/04/06 07:48:45;;;;;;;5.60;4.03;;;2.80;77.30;;;;;;5015542;28;20034;-58
2021/04/06 07:51:16;;;;;;;6.75;3.53;;;2.80;78.10;;;;;;5016844;28;20065;-58
2021/04/06 07:53:55;;;;;;;7.68;3.30;;;2.70;78.70;;;;;;5028724;28;20025;-57
2021/04/06 07:56:42;;;;;;;5.90;3.40;;;2.80;76.90;;;;;;5020336;28;20037;-59
2021/04/06 07:59:08;;;;;;;8.68;3.92;;;2.90;76.60;;;;;;5019317;28;20034;-59
2021/04/06 08:01:34;;;;;;;5.78;3.25;;;3.00;76.80;;;;;;5024572;28;20058;-56
2021/04/06 08:04:01;;;;;;;5.53;3.63;;;3.10;76.70;;;;;;5020940;28;20116;-57
2021/04/06 08:06:39;;;;;;;5.07;3.03;;;3.20;76.50;;;;;;5023588;28;20041;-56
2021/04/06 08:09:45;;;;;;;8.73;3.10;;;3.30;75.20;;;;;;5011376;28;20129;-58
2021/04/06 08:12:21;;;;;;;6.60;3.55;;;2.90;75.80;;;;;;5018374;28;20026;-59
2021/04/06 08:15:02;;;;;;;7.57;3.95;;;2.90;76.70;;;;;;5018682;28;20053;-58
2021/04/06 08:17:28;;;;;;;7.30;3.30;;;2.70;78.10;;;;;;5015883;28;20029;-58
2021/04/06 08:19:55;;;;;;;8.95;3.90;;;2.70;77.70;;;;;;5017393;28;20412;-59
2021/04/06 08:22:26;;;;;;;8.20;3.50;;;2.70;77.40;;;;;;5016395;28;20125;-59
2021/04/06 08:25:10;;;;;;;7.13;3.95;;;2.70;78.20;;;;;;5015485;28;20029;-60
2021/04/06 08:27:36;;;;;;;7.93;3.90;;;2.70;77.40;;;;;;5011114;28;20417;-59
2021/04/06 08:30:26;;;;;;;7.32;3.08;;;2.70;77.30;;;;;;5014912;28;20053;-59
2021/04/06 08:32:58;;;;;;;7.50;3.40;;;2.60;78.40;;;;;;5025072;28;20030;-59
2021/04/06 08:35:45;;;;;;;8.95;3.78;;;2.70;78.10;;;;;;5025521;28;20036;-59
2021/04/06 08:38:23;;;;;;;8.88;3.40;;;2.70;78.20;;;;;;5003562;28;20033;-61
2021/04/06 08:40:48;;;;;;;6.07;3.40;;;2.80;77.80;;;;;;5013481;28;20088;-59
2021/04/06 08:43:19;;;;;;;6.82;3.40;;;2.60;78.60;;;;;;5014252;28;20052;-60
2021/04/06 08:46:33;;;;;;;6.65;3.75;;;2.70;79.10;;;;;;5009318;28;20024;-59
2021/04/06 08:48:58;;;;;;;7.05;4.53;;;2.50;84.10;;;;;;4995213;28;20046;-60
2021/04/06 08:51:24;;;;;;;10.65;5.53;;;1.90;91.50;;;;;;5015809;28;20075;-56
2021/04/06 08:53:57;;;;;;;9.40;5.28;;;1.40;93.60;;;;;;5014645;28;20449;-57
2021/04/06 08:56:44;;;;;;;10.13;4.97;;;1.10;94.70;;;;;;5012198;28;20416;-59
2021/04/06 08:59:33;;;;;;;11.85;5.93;;;1.30;94.80;;;;;;5014664;28;20486;-60
2021/04/06 09:02:00;;;;;;;14.55;5.30;;;1.20;95.10;;;;;;5012491;28;20041;-59
2021/04/06 09:04:36;;;;;;;8.60;4.60;;;1.50;93.80;;;;;;5012219;28;20057;-60
2021/04/06 09:07:14;;;;;;;12.32;5.63;;;1.70;93.70;;;;;;5027805;28;20057;-59
2021/04/06 09:09:40;;;;;;;8.65;4.35;;;2.00;92.80;;;;;;4994084;28;20105;-60
2021/04/06 09:12:08;;;;;;;11.15;4.07;;;2.00;92.80;;;;;;4999666;28;20113;-60
2021/04/06 09:14:35;;;;;;;9.60;4.28;;;2.30;92.40;;;;;;5001034;28;20161;-59
2021/04/06 09:17:01;;;;;;;12.15;4.28;;;2.20;92.90;;;;;;5008246;28;20671;-62
2021/04/06 09:19:27;;;;;;;14.55;4.20;;;2.30;92.80;;;;;;4996213;28;20045;-59
2021/04/06 09:21:54;;;;;;;6.95;3.95;;;2.40;92.60;;;;;;5013825;28;20469;-62
2021/04/06 09:24:22;;;;;;;7.45;4.38;;;2.50;92.10;;;;;;5023227;28;20033;-60
2021/04/06 09:26:50;;;;;;;9.82;3.97;;;2.40;92.90;;;;;;5022344;28;20030;-60
2021/04/06 09:29:27;;;;;;;7.88;4.07;;;2.10;92.90;;;;;;5021227;28;20124;-61
2021/04/06 09:31:56;;;;;;;7.85;4.40;;;2.20;92.70;;;;;;5022121;28;20037;-57
2021/04/06 09:34:22;;;;;;;9.98;4.25;;;2.40;92.00;;;;;;5032668;28;20057;-60
2021/04/06 09:36:56;;;;;;;6.85;3.75;;;2.40;92.30;;;;;;5018445;28;20049;-59
2021/04/06 09:39:23;;;;;;;12.20;4.25;;;2.70;91.70;;;;;;5011283;28;20017;-60
2021/04/06 09:41:49;;;;;;;7.88;4.40;;;2.70;91.10;;;;;;5013662;28;20386;-61
2021/04/06 09:44:26;;;;;;;11.38;4.65;;;2.60;91.40;;;;;;5025364;28;20108;-59
2021/04/06 09:46:57;;;;;;;6.55;3.85;;;2.80;91.10;;;;;;5025693;28;20030;-59
2021/04/06 09:49:32;;;;;;;9.00;4.70;;;3.20;90.60;;;;;;5023003;28;20049;-59
2021/04/06 09:52:00;;;;;;;10.05;4.93;;;3.10;90.60;;;;;;5014419;28;20037;-60
2021/04/06 09:54:50;;;;;;;8.73;4.50;;;3.50;89.30;;;;;;5013179;28;20030;-57
2021/04/06 09:57:17;;;;;;;10.45;5.40;;;3.90;89.20;;;;;;5013598;28;20045;-59
2021/04/06 09:59:49;;;;;;;7.45;4.50;;;4.20;87.20;;;;;;5010804;28;20392;-59
2021/04/06 10:02:18;;;;;;;10.43;4.80;;;4.10;84.40;;;;;;5016149;28;20053;-58
2021/04/06 10:04:49;;;;;;;12.30;5.97;;;4.30;84.60;;;;;;5014809;28;20117;-59
2021/04/06 10:07:26;;;;;;;9.93;5.40;;;4.40;84.80;;;;;;5028763;28;20029;-60
2021/04/06 10:09:52;;;;;;;10.55;5.22;;;4.80;82.80;;;;;;5022238;28;20029;-60
2021/04/06 10:12:20;;;;;;;7.00;4.10;;;4.80;80.50;;;;;;5020952;28;20742;-59
2021/04/06 10:14:47;;;;;;;8.13;4.38;;;4.30;81.80;;;;;;5022017;28;20018;-60
2021/04/06 10:17:34;;;;;;;8.98;4.57;;;3.80;85.20;;;;;;5018898;28;20069;-61
2021/04/06 10:20:06;;;;;;;8.93;4.85;;;3.30;89.70;;;;;;5027330;28;20037;-60
2021/04/06 10:22:50;;;;;;;9.85;4.93;;;3.20;90.60;;;;;;5021128;28;20397;-59
2021/04/06 10:25:18;;;;;;;9.07;4.57;;;3.20;90.70;;;;;;5012791;28;20041;-59
2021/04/06 10:27:48;;;;;;;10.48;4.82;;;3.00;90.90;;;;;;5006048;28;20069;-59
2021/04/06 10:30:51;;;;;;;8.48;4.45;;;2.90;91.00;;;;;;5012036;28;20085;-60
2021/04/06 10:33:17;;;;;;;10.10;4.88;;;3.00;90.70;;;;;;5011278;28;20392;-60
2021/04/06 10:35:55;;;;;;;8.90;4.78;;;3.10;90.70;;;;;;5016564;28;20061;-56
2021/04/06 10:38:25;;;;;;;10.23;4.25;;;3.00;91.00;;;;;;5009205;28;20116;-58
2021/04/06 10:41:16;;;;;;;10.63;4.13;;;3.00;90.60;;;;;;5029163;28;20032;-54
2021/04/06 10:43:50;;;;;;;10.55;3.92;;;3.20;88.50;;;;;;5012993;28;20428;-60
2021/04/06 10:46:18;;;;;;;9.43;4.20;;;3.30;86.20;;;;;;5026901;28;20092;-60
2021/04/06 10:48:48;;;;;;;7.38;3.50;;;3.50;85.00;;;;;;5013516;28;20034;-61
2021/04/06 10:51:18;;;;;;;6.90;3.92;;;3.60;85.20;;;;;;5013283;28;20029;-58
2021/04/06 10:53:49;;;;;;;8.70;3.85;;;3.40;85.60;;;;;;5017212;28;20092;-60
2021/04/06 10:56:19;;;;;;;6.38;3.05;;;3.20;87.70;;;;;;5014467;28;20026;-60
2021/04/06 10:58:45;;;;;;;6.70;2.92;;;3.30;88.20;;;;;;5013570;28;20048;-59
2021/04/06 11:01:13;;;;;;;5.60;2.72;;;3.30;87.20;;;;;;5016988;28;20052;-60
2021/04/06 11:04:10;;;;;;;4.90;2.60;;;3.40;87.60;;;;;;5014067;28;20486;-60
2021/04/06 11:06:41;;;;;;;7.10;3.05;;;3.50;86.30;;;;;;5022233;28;20085;-58
2021/04/06 11:09:15;;;;;;;5.28;2.75;;;3.50;86.50;;;;;;5021585;28;20113;-60
2021/04/06 11:11:43;;;;;;;8.98;3.20;;;3.70;85.10;;;;;;5013197;28;20032;-60
2021/04/06 11:14:16;;;;;;;6.65;2.83;;;3.90;84.70;;;;;;5012769;28;20093;-60
2021/04/06 11:16:43;;;;;;;10.45;3.47;;;4.10;82.00;;;;;;5022929;28;20042;-61
2021/04/06 11:19:14;;;;;;;9.55;3.50;;;3.90;79.00;;;;;;5027931;28;20472;-61
2021/04/06 11:21:50;;;;;;;7.40;2.90;;;3.70;83.00;;;;;;5023944;28;20029;-60
2021/04/06 11:24:18;;;;;;;4.63;3.15;;;2.90;90.60;;;;;;5018274;28;20033;-59
2021/04/06 11:26:44;;;;;;;6.75;3.95;;;2.50;91.90;;;;;;5012026;28;20382;-59
2021/04/06 11:29:12;;;;;;;4.32;2.88;;;2.00;93.10;;;;;;5017558;28;20036;-58
2021/04/06 11:31:39;;;;;;;6.88;3.45;;;1.80;93.80;;;;;;5027168;28;20038;-60
2021/04/06 11:34:06;;;;;;;6.93;3.97;;;1.70;94.30;;;;;;5013086;28;20446;-60
2021/04/06 11:36:33;;;;;;;10.60;3.28;;;1.70;93.90;;;;;;5016400;28;20032;-60
2021/04/06 11:39:00;;;;;;;12.32;4.13;;;1.70;94.60;;;;;;5014985;28;20124;-62
2021/04/06 11:41:26;;;;;;;9.40;3.20;;;2.00;93.40;;;;;;5021494;28;20033;-60
2021/04/06 11:43:51;;;;;;;6.53;3.15;;;2.30;93.20;;;;;;5023640;28;20040;-63
2021/04/06 11:46:19;;;;;;;9.45;3.30;;;2.60;92.40;;;;;;5013232;28;20524;-62
2021/04/06 11:48:45;;;;;;;4.78;2.88;;;2.90;91.60;;;;;;5014355;28;20053;-59
2021/04/06 11:51:21;;;;;;;9.75;3.30;;;3.10;91.00;;;;;;5013044;28;20041;-62
2021/04/06 11:53:47;;;;;;;12.93;3.47;;;3.30;90.70;;;;;;5026617;28;20029;-61
2021/04/06 11:56:15;;;;;;;9.27;3.65;;;3.20;90.70;;;;;;5018549;28;20030;-60
2021/04/06 11:58:40;;;;;;;6.78;3.38;;;3.40;91.20;;;;;;5018126;28;20477;-61
2021/04/06 12:01:06;;;;;;;6.88;2.85;;;3.60;90.80;;;;;;5012732;28;20036;-60
2021/04/06 12:03:32;;;;;;;7.20;3.20;;;3.90;90.10;;;;;;5021475;28;20041;-59
2021/04/06 12:05:57;;;;;;;11.55;4.50;;;3.90;88.70;;;;;;5023677;28;20485;-59
2021/04/06 12:08:23;;;;;;;10.82;4.03;;;3.80;89.50;;;;;;5019095;28;20038;-62
2021/04/06 12:10:49;;;;;;;8.15;2.67;;;3.70;89.60;;;;;;5024076;28;20021;-60
2021/04/06 12:13:17;;;;;;;7.32;2.78;;;2.80;91.00;;;;;;5014882;28;20037;-59
2021/04/06 12:15:44;;;;;;;7.88;3.17;;;2.50;90.90;;;;;;5022157;28;20823;-60
2021/04/06 12:18:10;;;;;;;10.15;2.90;;;2.40;90.70;;;;;;5024011;28;20064;-59
2021/04/06 12:20:36;;;;;;;7.85;3.35;;;2.50;90.30;;;;;;5022955;28;20053;-60
2021/04/06 12:23:02;;;;;;;9.40;2.72;;;2.70;89.70;;;;;;5005991;28;20053;-61
2021/04/06 12:25:27;;;;;;;5.93;2.38;;;2.90;88.20;;;;;;5011918;28;20497;-62
2021/04/06 12:27:53;;;;;;;6.70;2.70;;;3.10;86.60;;;;;;5011814;28;20494;-61
2021/04/06 12:30:20;;;;;;;8.23;2.90;;;3.30;86.20;;;;;;5011696;28;20561;-63
2021/04/06 12:32:46;;;;;;;7.95;2.72;;;3.70;84.90;;;;;;5013364;28;20042;-64
2021/04/06 12:35:12;;;;;;;13.43;3.35;;;3.80;83.90;;;;;;5010875;28;20046;-64
2021/04/06 12:37:37;;;;;;;6.70;3.10;;;4.20;83.10;;;;;;5016173;28;20030;-64
2021/04/06 12:40:09;;;;;;;8.60;3.13;;;4.80;82.10;;;;;;5014493;28;20046;-64
2021/04/06 12:42:38;;;;;;;7.03;2.83;;;5.20;80.60;;;;;;5015075;28;20099;-62
2021/04/06 12:45:06;;;;;;;9.13;3.33;;;5.40;79.10;;;;;;5017064;28;20041;-62
2021/04/06 12:47:34;;;;;;;7.15;3.05;;;5.60;78.50;;;;;;5028395;28;20089;-61
2021/04/06 12:50:00;;;;;;;6.15;3.25;;;5.80;79.00;;;;;;5020663;28;20497;-61
2021/04/06 12:52:26;;;;;;;8.70;2.88;;;5.70;77.20;;;;;;5029865;28;20092;-62
2021/04/06 12:54:51;;;;;;;6.70;3.03;;;5.50;78.80;;;;;;5021055;28;20037;-61
2021/04/06 12:57:17;;;;;;;6.82;2.85;;;5.70;75.50;;;;;;5027669;28;20032;-60
2021/04/06 12:59:43;;;;;;;9.52;3.10;;;5.40;75.20;;;;;;5025315;28;20104;-59
2021/04/06 13:02:09;;;;;;;11.82;3.17;;;5.00;76.20;;;;;;4999647;28;20050;-60
2021/04/06 13:04:34;;;;;;;5.00;2.83;;;4.70;77.90;;;;;;4998632;28;20034;-60
2021/04/06 13:07:01;;;;;;;7.00;3.00;;;4.60;79.10;;;;;;5029654;28;20038;-60
2021/04/06 13:09:27;;;;;;;9.27;3.03;;;5.20;78.90;;;;;;5025117;28;20029;-59
2021/04/06 13:11:52;;;;;;;4.97;2.75;;;5.70;74.90;;;;;;5019114;28;20498;-61
2021/04/06 13:14:18;;;;;;;5.15;2.53;;;6.20;68.50;;;;;;5015455;28;20038;-61